sensor_id;sensor_type;location;lat;lon;timestamp;P1;durP1;ratioP1;P2;durP2;ratioP2
11042;SDS011;5574;48.786;10.120;2024-01-30T00:01:52;14.50;;;11.40;;
11042;SDS011;5574;48.786;10.120;2024-01-30T00:04:20;13.57;;;11.77;;
11042;SDS011;5574;48.786;10.120;2024-01-30T00:06:47;13.43;;;11.77;;
11042;SDS011;5574;48.786;10.120;2024-01-30T00:09:13;13.43;;;12.00;;
11042;SDS011;5574;48.786;10.120;2024-01-30T00:11:40;13.77;;;12.23;;
11042;SDS011;5574;48.786;10.120;2024-01-30T00:14:07;12.87;;;11.47;;
11042;SDS011;5574;48.786;10.120;2024-01-30T00:16:33;12.97;;;11.57;;
11042;SDS011;5574;48.786;10.120;2024-01-30T00:19:00;13.47;;;12.00;;
11042;SDS011;5574;48.786;10.120;2024-01-30T00:21:29;13.23;;;11.67;;
11042;SDS011;5574;48.786;10.120;2024-01-30T00:23:55;14.03;;;11.30;;
11042;SDS011;5574;48.786;10.120;2024-01-30T00:26:22;14.33;;;12.83;;
11042;SDS011;5574;48.786;10.120;2024-01-30T00:28:48;16.80;;;11.50;;
11042;SDS011;5574;48.786;10.120;2024-01-30T00:31:15;14.97;;;12.03;;
11042;SDS011;5574;48.786;10.120;2024-01-30T00:33:42;14.33;;;11.83;;
11042;SDS011;5574;48.786;10.120;2024-01-30T00:36:09;13.50;;;11.63;;
11042;SDS011;5574;48.786;10.120;2024-01-30T00:38:37;15.20;;;12.10;;
11042;SDS011;5574;48.786;10.120;2024-01-30T00:41:05;13.03;;;11.70;;
11042;SDS011;5574;48.786;10.120;2024-01-30T00:43:34;13.33;;;11.93;;
11042;SDS011;5574;48.786;10.120;2024-01-30T00:46:01;14.53;;;11.40;;
11042;SDS011;5574;48.786;10.120;2024-01-30T00:48:28;13.10;;;11.60;;
11042;SDS011;5574;48.786;10.120;2024-01-30T00:50:55;14.80;;;11.63;;
11042;SDS011;5574;48.786;10.120;2024-01-30T00:53:21;13.90;;;11.20;;
11042;SDS011;5574;48.786;10.120;2024-01-30T00:55:49;13.77;;;11.60;;
11042;SDS011;5574;48.786;10.120;2024-01-30T00:58:16;12.70;;;11.40;;
11042;SDS011;5574;48.786;10.120;2024-01-30T01:00:44;11.90;;;10.70;;
11042;SDS011;5574;48.786;10.120;2024-01-30T01:03:11;12.03;;;10.77;;
11042;SDS011;5574;48.786;10.120;2024-01-30T01:05:39;13.93;;;10.73;;
11042;SDS011;5574;48.786;10.120;2024-01-30T01:08:05;12.13;;;10.57;;
11042;SDS011;5574;48.786;10.120;2024-01-30T01:10:32;12.00;;;10.70;;
11042;SDS011;5574;48.786;10.120;2024-01-30T01:13:00;12.20;;;10.70;;
11042;SDS011;5574;48.786;10.120;2024-01-30T01:15:27;11.00;;;9.90;;
11042;SDS011;5574;48.786;10.120;2024-01-30T01:17:54;12.63;;;10.70;;
11042;SDS011;5574;48.786;10.120;2024-01-30T01:20:20;14.40;;;11.50;;
11042;SDS011;5574;48.786;10.120;2024-01-30T01:22:47;12.20;;;10.90;;
11042;SDS011;5574;48.786;10.120;2024-01-30T01:25:14;12.07;;;10.87;;
11042;SDS011;5574;48.786;10.120;2024-01-30T01:27:40;13.20;;;10.63;;
11042;SDS011;5574;48.786;10.120;2024-01-30T01:30:10;14.43;;;10.97;;
11042;SDS011;5574;48.786;10.120;2024-01-30T01:32:43;13.97;;;9.90;;
11042;SDS011;5574;48.786;10.120;2024-01-30T01:35:15;11.57;;;10.43;;
11042;SDS011;5574;48.786;10.120;2024-01-30T01:37:41;12.50;;;10.77;;
11042;SDS011;5574;48.786;10.120;2024-01-30T01:40:08;11.40;;;10.20;;
11042;SDS011;5574;48.786;10.120;2024-01-30T01:42:35;13.87;;;11.23;;
11042;SDS011;5574;48.786;10.120;2024-01-30T01:45:03;13.90;;;10.70;;
11042;SDS011;5574;48.786;10.120;2024-01-30T01:47:32;11.70;;;10.40;;
11042;SDS011;5574;48.786;10.120;2024-01-30T01:49:58;11.20;;;9.87;;
11042;SDS011;5574;48.786;10.120;2024-01-30T01:52:25;16.53;;;10.60;;
11042;SDS011;5574;48.786;10.120;2024-01-30T01:54:52;12.57;;;10.77;;
11042;SDS011;5574;48.786;10.120;2024-01-30T01:57:19;13.77;;;10.50;;
11042;SDS011;5574;48.786;10.120;2024-01-30T01:59:46;14.43;;;11.13;;
11042;SDS011;5574;48.786;10.120;2024-01-30T02:02:13;13.57;;;10.50;;
11042;SDS011;5574;48.786;10.120;2024-01-30T02:04:44;12.20;;;10.87;;
11042;SDS011;5574;48.786;10.120;2024-01-30T02:07:11;12.77;;;10.90;;
11042;SDS011;5574;48.786;10.120;2024-01-30T02:09:38;12.03;;;10.53;;
11042;SDS011;5574;48.786;10.120;2024-01-30T02:12:05;13.27;;;10.70;;
11042;SDS011;5574;48.786;10.120;2024-01-30T02:14:32;12.63;;;10.20;;
11042;SDS011;5574;48.786;10.120;2024-01-30T02:16:59;12.77;;;10.17;;
11042;SDS011;5574;48.786;10.120;2024-01-30T02:19:26;13.00;;;10.83;;
11042;SDS011;5574;48.786;10.120;2024-01-30T02:21:54;15.77;;;11.03;;
11042;SDS011;5574;48.786;10.120;2024-01-30T02:24:20;12.13;;;10.87;;
11042;SDS011;5574;48.786;10.120;2024-01-30T02:26:47;13.73;;;11.00;;
11042;SDS011;5574;48.786;10.120;2024-01-30T02:29:14;11.70;;;10.17;;
11042;SDS011;5574;48.786;10.120;2024-01-30T02:31:40;13.23;;;10.63;;
11042;SDS011;5574;48.786;10.120;2024-01-30T02:34:07;12.43;;;10.60;;
11042;SDS011;5574;48.786;10.120;2024-01-30T02:36:34;12.03;;;10.80;;
11042;SDS011;5574;48.786;10.120;2024-01-30T02:39:02;11.93;;;10.67;;
11042;SDS011;5574;48.786;10.120;2024-01-30T02:41:29;11.50;;;10.23;;
11042;SDS011;5574;48.786;10.120;2024-01-30T02:43:56;14.03;;;10.87;;
11042;SDS011;5574;48.786;10.120;2024-01-30T02:46:22;12.53;;;10.77;;
11042;SDS011;5574;48.786;10.120;2024-01-30T02:48:49;13.97;;;10.83;;
11042;SDS011;5574;48.786;10.120;2024-01-30T02:51:16;11.43;;;10.17;;
11042;SDS011;5574;48.786;10.120;2024-01-30T02:53:43;13.20;;;11.30;;
11042;SDS011;5574;48.786;10.120;2024-01-30T02:56:11;14.40;;;11.10;;
11042;SDS011;5574;48.786;10.120;2024-01-30T02:58:39;14.07;;;11.50;;
11042;SDS011;5574;48.786;10.120;2024-01-30T03:01:05;12.67;;;11.10;;
11042;SDS011;5574;48.786;10.120;2024-01-30T03:03:32;12.50;;;11.17;;
11042;SDS011;5574;48.786;10.120;2024-01-30T03:06:00;12.67;;;10.63;;
11042;SDS011;5574;48.786;10.120;2024-01-30T03:08:27;14.73;;;10.50;;
11042;SDS011;5574;48.786;10.120;2024-01-30T03:10:53;11.30;;;10.10;;
11042;SDS011;5574;48.786;10.120;2024-01-30T03:13:22;12.03;;;10.10;;
11042;SDS011;5574;48.786;10.120;2024-01-30T03:15:50;11.07;;;9.87;;
11042;SDS011;5574;48.786;10.120;2024-01-30T03:18:17;13.17;;;10.27;;
11042;SDS011;5574;48.786;10.120;2024-01-30T03:20:44;12.17;;;10.13;;
11042;SDS011;5574;48.786;10.120;2024-01-30T03:23:10;11.60;;;10.40;;
11042;SDS011;5574;48.786;10.120;2024-01-30T03:25:37;14.83;;;10.70;;
11042;SDS011;5574;48.786;10.120;2024-01-30T03:28:04;13.53;;;10.37;;
11042;SDS011;5574;48.786;10.120;2024-01-30T03:30:33;12.07;;;9.90;;
11042;SDS011;5574;48.786;10.120;2024-01-30T03:33:00;11.13;;;10.03;;
11042;SDS011;5574;48.786;10.120;2024-01-30T03:35:27;12.00;;;10.13;;
11042;SDS011;5574;48.786;10.120;2024-01-30T03:37:53;11.37;;;9.87;;
11042;SDS011;5574;48.786;10.120;2024-01-30T03:40:20;10.80;;;9.53;;
11042;SDS011;5574;48.786;10.120;2024-01-30T03:42:47;12.07;;;10.00;;
11042;SDS011;5574;48.786;10.120;2024-01-30T03:45:13;13.60;;;11.37;;
11042;SDS011;5574;48.786;10.120;2024-01-30T03:47:44;13.40;;;10.37;;
11042;SDS011;5574;48.786;10.120;2024-01-30T03:50:11;11.77;;;9.70;;
11042;SDS011;5574;48.786;10.120;2024-01-30T03:52:37;11.70;;;10.50;;
11042;SDS011;5574;48.786;10.120;2024-01-30T03:55:05;11.83;;;10.40;;
11042;SDS011;5574;48.786;10.120;2024-01-30T03:57:31;10.90;;;9.80;;
11042;SDS011;5574;48.786;10.120;2024-01-30T03:59:58;12.50;;;10.30;;
11042;SDS011;5574;48.786;10.120;2024-01-30T04:02:25;15.47;;;10.97;;
11042;SDS011;5574;48.786;10.120;2024-01-30T04:04:53;14.53;;;10.87;;
11042;SDS011;5574;48.786;10.120;2024-01-30T04:07:20;11.87;;;10.50;;
11042;SDS011;5574;48.786;10.120;2024-01-30T04:09:46;11.80;;;10.03;;
11042;SDS011;5574;48.786;10.120;2024-01-30T04:12:13;13.10;;;10.10;;
11042;SDS011;5574;48.786;10.120;2024-01-30T04:14:40;11.17;;;9.90;;
11042;SDS011;5574;48.786;10.120;2024-01-30T04:17:06;11.83;;;9.93;;
11042;SDS011;5574;48.786;10.120;2024-01-30T04:19:36;13.20;;;10.03;;
11042;SDS011;5574;48.786;10.120;2024-01-30T04:22:04;12.57;;;10.23;;
11042;SDS011;5574;48.786;10.120;2024-01-30T04:24:31;11.37;;;10.17;;
11042;SDS011;5574;48.786;10.120;2024-01-30T04:26:58;11.67;;;10.43;;
11042;SDS011;5574;48.786;10.120;2024-01-30T04:29:24;12.43;;;9.50;;
11042;SDS011;5574;48.786;10.120;2024-01-30T04:31:51;11.40;;;9.90;;
11042;SDS011;5574;48.786;10.120;2024-01-30T04:34:18;11.67;;;10.47;;
11042;SDS011;5574;48.786;10.120;2024-01-30T04:36:44;14.30;;;10.23;;
11042;SDS011;5574;48.786;10.120;2024-01-30T04:39:12;11.23;;;10.10;;
11042;SDS011;5574;48.786;10.120;2024-01-30T04:41:39;11.57;;;10.17;;
11042;SDS011;5574;48.786;10.120;2024-01-30T04:44:06;10.77;;;9.67;;
11042;SDS011;5574;48.786;10.120;2024-01-30T04:46:32;12.60;;;10.87;;
11042;SDS011;5574;48.786;10.120;2024-01-30T04:49:00;11.20;;;9.93;;
11042;SDS011;5574;48.786;10.120;2024-01-30T04:51:26;12.67;;;10.30;;
11042;SDS011;5574;48.786;10.120;2024-01-30T04:53:53;12.07;;;10.13;;
11042;SDS011;5574;48.786;10.120;2024-01-30T04:56:21;13.43;;;10.83;;
11042;SDS011;5574;48.786;10.120;2024-01-30T04:58:48;11.17;;;9.87;;
11042;SDS011;5574;48.786;10.120;2024-01-30T05:01:14;13.03;;;10.17;;
11042;SDS011;5574;48.786;10.120;2024-01-30T05:03:42;13.07;;;10.13;;
11042;SDS011;5574;48.786;10.120;2024-01-30T05:06:08;10.73;;;9.63;;
11042;SDS011;5574;48.786;10.120;2024-01-30T05:08:35;11.60;;;10.03;;
11042;SDS011;5574;48.786;10.120;2024-01-30T05:11:02;12.30;;;11.00;;
11042;SDS011;5574;48.786;10.120;2024-01-30T05:13:32;12.00;;;10.03;;
11042;SDS011;5574;48.786;10.120;2024-01-30T05:15:59;11.77;;;9.73;;
11042;SDS011;5574;48.786;10.120;2024-01-30T05:18:28;11.20;;;10.07;;
11042;SDS011;5574;48.786;10.120;2024-01-30T05:20:54;12.13;;;9.70;;
11042;SDS011;5574;48.786;10.120;2024-01-30T05:23:21;10.83;;;9.20;;
11042;SDS011;5574;48.786;10.120;2024-01-30T05:25:48;11.17;;;9.67;;
11042;SDS011;5574;48.786;10.120;2024-01-30T05:28:14;11.13;;;9.73;;
11042;SDS011;5574;48.786;10.120;2024-01-30T05:30:42;10.33;;;9.13;;
11042;SDS011;5574;48.786;10.120;2024-01-30T05:33:09;12.30;;;10.03;;
11042;SDS011;5574;48.786;10.120;2024-01-30T05:35:37;11.40;;;10.20;;
11042;SDS011;5574;48.786;10.120;2024-01-30T05:38:03;14.87;;;11.40;;
11042;SDS011;5574;48.786;10.120;2024-01-30T05:40:30;13.00;;;10.73;;
11042;SDS011;5574;48.786;10.120;2024-01-30T05:42:57;11.53;;;10.33;;
11042;SDS011;5574;48.786;10.120;2024-01-30T05:45:25;11.57;;;10.37;;
11042;SDS011;5574;48.786;10.120;2024-01-30T05:47:53;11.80;;;10.20;;
11042;SDS011;5574;48.786;10.120;2024-01-30T05:50:20;11.87;;;10.00;;
11042;SDS011;5574;48.786;10.120;2024-01-30T05:52:48;10.90;;;9.77;;
11042;SDS011;5574;48.786;10.120;2024-01-30T05:55:15;12.87;;;10.30;;
11042;SDS011;5574;48.786;10.120;2024-01-30T05:57:41;11.83;;;9.20;;
11042;SDS011;5574;48.786;10.120;2024-01-30T06:00:08;11.63;;;9.60;;
11042;SDS011;5574;48.786;10.120;2024-01-30T06:02:35;12.43;;;10.13;;
11042;SDS011;5574;48.786;10.120;2024-01-30T06:05:03;11.57;;;9.70;;
11042;SDS011;5574;48.786;10.120;2024-01-30T06:07:31;12.27;;;9.90;;
11042;SDS011;5574;48.786;10.120;2024-01-30T06:09:57;12.50;;;10.20;;
11042;SDS011;5574;48.786;10.120;2024-01-30T06:12:25;10.43;;;9.43;;
11042;SDS011;5574;48.786;10.120;2024-01-30T06:14:53;12.43;;;10.07;;
11042;SDS011;5574;48.786;10.120;2024-01-30T06:17:21;11.90;;;9.87;;
11042;SDS011;5574;48.786;10.120;2024-01-30T06:19:48;10.17;;;9.17;;
11042;SDS011;5574;48.786;10.120;2024-01-30T06:22:16;13.70;;;9.20;;
11042;SDS011;5574;48.786;10.120;2024-01-30T06:24:43;10.73;;;9.27;;
11042;SDS011;5574;48.786;10.120;2024-01-30T06:27:12;10.00;;;8.80;;
11042;SDS011;5574;48.786;10.120;2024-01-30T06:29:39;11.67;;;10.30;;
11042;SDS011;5574;48.786;10.120;2024-01-30T06:32:06;12.97;;;10.63;;
11042;SDS011;5574;48.786;10.120;2024-01-30T06:34:33;13.20;;;10.17;;
11042;SDS011;5574;48.786;10.120;2024-01-30T06:36:59;11.50;;;10.30;;
11042;SDS011;5574;48.786;10.120;2024-01-30T06:39:27;11.63;;;10.43;;
11042;SDS011;5574;48.786;10.120;2024-01-30T06:41:54;11.20;;;9.67;;
11042;SDS011;5574;48.786;10.120;2024-01-30T06:44:21;11.17;;;9.40;;
11042;SDS011;5574;48.786;10.120;2024-01-30T06:46:47;11.37;;;9.87;;
11042;SDS011;5574;48.786;10.120;2024-01-30T06:49:14;10.73;;;9.60;;
11042;SDS011;5574;48.786;10.120;2024-01-30T06:51:41;11.53;;;10.13;;
11042;SDS011;5574;48.786;10.120;2024-01-30T06:54:08;14.43;;;11.70;;
11042;SDS011;5574;48.786;10.120;2024-01-30T06:56:36;11.27;;;9.53;;
11042;SDS011;5574;48.786;10.120;2024-01-30T06:59:03;10.77;;;9.53;;
11042;SDS011;5574;48.786;10.120;2024-01-30T07:01:30;13.20;;;10.17;;
11042;SDS011;5574;48.786;10.120;2024-01-30T07:03:57;11.87;;;10.10;;
11042;SDS011;5574;48.786;10.120;2024-01-30T07:06:24;11.07;;;9.57;;
11042;SDS011;5574;48.786;10.120;2024-01-30T07:08:50;10.80;;;9.70;;
11042;SDS011;5574;48.786;10.120;2024-01-30T07:11:20;11.50;;;10.23;;
11042;SDS011;5574;48.786;10.120;2024-01-30T07:13:50;13.53;;;9.67;;
11042;SDS011;5574;48.786;10.120;2024-01-30T07:16:17;10.73;;;9.47;;
11042;SDS011;5574;48.786;10.120;2024-01-30T07:18:43;10.57;;;9.17;;
11042;SDS011;5574;48.786;10.120;2024-01-30T07:21:11;20.63;;;15.63;;
11042;SDS011;5574;48.786;10.120;2024-01-30T07:23:37;10.10;;;8.57;;
11042;SDS011;5574;48.786;10.120;2024-01-30T07:26:04;9.90;;;7.87;;
11042;SDS011;5574;48.786;10.120;2024-01-30T07:28:33;11.93;;;8.50;;
11042;SDS011;5574;48.786;10.120;2024-01-30T07:31:01;10.03;;;8.10;;
11042;SDS011;5574;48.786;10.120;2024-01-30T07:33:28;11.37;;;8.90;;
11042;SDS011;5574;48.786;10.120;2024-01-30T07:35:55;11.00;;;9.30;;
11042;SDS011;5574;48.786;10.120;2024-01-30T07:38:22;11.97;;;10.10;;
11042;SDS011;5574;48.786;10.120;2024-01-30T07:40:48;12.73;;;10.83;;
11042;SDS011;5574;48.786;10.120;2024-01-30T07:43:15;14.57;;;11.00;;
11042;SDS011;5574;48.786;10.120;2024-01-30T07:45:42;12.30;;;11.10;;
11042;SDS011;5574;48.786;10.120;2024-01-30T07:48:10;12.23;;;10.80;;
11042;SDS011;5574;48.786;10.120;2024-01-30T07:50:37;12.83;;;10.80;;
11042;SDS011;5574;48.786;10.120;2024-01-30T07:53:03;14.10;;;10.47;;
11042;SDS011;5574;48.786;10.120;2024-01-30T07:55:30;14.37;;;11.40;;
11042;SDS011;5574;48.786;10.120;2024-01-30T07:57:57;18.33;;;11.80;;
11042;SDS011;5574;48.786;10.120;2024-01-30T08:00:25;17.93;;;11.53;;
11042;SDS011;5574;48.786;10.120;2024-01-30T08:02:52;16.60;;;11.43;;
11042;SDS011;5574;48.786;10.120;2024-01-30T08:05:22;17.37;;;11.87;;
11042;SDS011;5574;48.786;10.120;2024-01-30T08:07:49;22.73;;;12.73;;
11042;SDS011;5574;48.786;10.120;2024-01-30T08:10:15;18.47;;;12.70;;
11042;SDS011;5574;48.786;10.120;2024-01-30T08:12:44;18.13;;;12.47;;
11042;SDS011;5574;48.786;10.120;2024-01-30T08:15:11;19.47;;;12.23;;
11042;SDS011;5574;48.786;10.120;2024-01-30T08:17:38;20.27;;;13.23;;
11042;SDS011;5574;48.786;10.120;2024-01-30T08:20:06;20.57;;;13.70;;
11042;SDS011;5574;48.786;10.120;2024-01-30T08:22:37;21.30;;;13.30;;
11042;SDS011;5574;48.786;10.120;2024-01-30T08:25:05;18.07;;;13.47;;
11042;SDS011;5574;48.786;10.120;2024-01-30T08:27:32;20.97;;;13.70;;
11042;SDS011;5574;48.786;10.120;2024-01-30T08:30:00;21.17;;;13.67;;
11042;SDS011;5574;48.786;10.120;2024-01-30T08:32:27;16.40;;;12.67;;
11042;SDS011;5574;48.786;10.120;2024-01-30T08:34:54;20.50;;;13.40;;
11042;SDS011;5574;48.786;10.120;2024-01-30T08:37:20;21.00;;;14.03;;
11042;SDS011;5574;48.786;10.120;2024-01-30T08:39:48;20.53;;;13.90;;
11042;SDS011;5574;48.786;10.120;2024-01-30T08:42:15;17.30;;;13.87;;
11042;SDS011;5574;48.786;10.120;2024-01-30T08:44:43;17.23;;;13.93;;
11042;SDS011;5574;48.786;10.120;2024-01-30T08:47:10;15.87;;;13.60;;
11042;SDS011;5574;48.786;10.120;2024-01-30T08:49:36;14.93;;;12.13;;
11042;SDS011;5574;48.786;10.120;2024-01-30T08:52:02;12.63;;;11.10;;
11042;SDS011;5574;48.786;10.120;2024-01-30T08:54:29;13.17;;;11.87;;
11042;SDS011;5574;48.786;10.120;2024-01-30T08:57:00;14.00;;;11.70;;
11042;SDS011;5574;48.786;10.120;2024-01-30T08:59:27;14.77;;;12.30;;
11042;SDS011;5574;48.786;10.120;2024-01-30T09:01:53;15.67;;;12.00;;
11042;SDS011;5574;48.786;10.120;2024-01-30T09:04:20;15.40;;;12.20;;
11042;SDS011;5574;48.786;10.120;2024-01-30T09:06:47;16.03;;;12.03;;
11042;SDS011;5574;48.786;10.120;2024-01-30T09:09:15;16.10;;;12.90;;
11042;SDS011;5574;48.786;10.120;2024-01-30T09:11:42;14.53;;;12.63;;
11042;SDS011;5574;48.786;10.120;2024-01-30T09:14:10;15.50;;;12.37;;
11042;SDS011;5574;48.786;10.120;2024-01-30T09:16:37;18.10;;;12.83;;
11042;SDS011;5574;48.786;10.120;2024-01-30T09:19:04;15.20;;;13.37;;
11042;SDS011;5574;48.786;10.120;2024-01-30T09:21:30;15.23;;;13.63;;
11042;SDS011;5574;48.786;10.120;2024-01-30T09:24:01;15.40;;;12.57;;
11042;SDS011;5574;48.786;10.120;2024-01-30T09:26:28;18.23;;;13.60;;
11042;SDS011;5574;48.786;10.120;2024-01-30T09:28:55;15.57;;;13.60;;
11042;SDS011;5574;48.786;10.120;2024-01-30T09:31:23;14.13;;;12.70;;
11042;SDS011;5574;48.786;10.120;2024-01-30T09:33:50;16.07;;;12.93;;
11042;SDS011;5574;48.786;10.120;2024-01-30T09:36:18;16.33;;;13.70;;
11042;SDS011;5574;48.786;10.120;2024-01-30T09:38:45;16.40;;;13.33;;
11042;SDS011;5574;48.786;10.120;2024-01-30T09:41:12;16.90;;;13.73;;
11042;SDS011;5574;48.786;10.120;2024-01-30T09:43:39;19.30;;;13.67;;
11042;SDS011;5574;48.786;10.120;2024-01-30T09:46:06;15.37;;;12.90;;
11042;SDS011;5574;48.786;10.120;2024-01-30T09:48:39;17.50;;;13.30;;
11042;SDS011;5574;48.786;10.120;2024-01-30T09:51:07;15.50;;;12.80;;
11042;SDS011;5574;48.786;10.120;2024-01-30T09:53:35;16.33;;;12.27;;
11042;SDS011;5574;48.786;10.120;2024-01-30T09:56:02;15.33;;;13.07;;
11042;SDS011;5574;48.786;10.120;2024-01-30T09:58:30;12.97;;;11.57;;
11042;SDS011;5574;48.786;10.120;2024-01-30T10:00:56;14.57;;;12.13;;
11042;SDS011;5574;48.786;10.120;2024-01-30T10:03:23;14.53;;;12.20;;
11042;SDS011;5574;48.786;10.120;2024-01-30T10:05:51;13.43;;;11.97;;
11042;SDS011;5574;48.786;10.120;2024-01-30T10:08:18;12.63;;;10.90;;
11042;SDS011;5574;48.786;10.120;2024-01-30T10:10:45;15.40;;;11.43;;
11042;SDS011;5574;48.786;10.120;2024-01-30T10:13:12;12.60;;;11.27;;
11042;SDS011;5574;48.786;10.120;2024-01-30T10:15:39;15.17;;;12.20;;
11042;SDS011;5574;48.786;10.120;2024-01-30T10:18:06;14.57;;;13.07;;
11042;SDS011;5574;48.786;10.120;2024-01-30T10:20:33;13.63;;;12.20;;
11042;SDS011;5574;48.786;10.120;2024-01-30T10:23:01;14.03;;;12.47;;
11042;SDS011;5574;48.786;10.120;2024-01-30T10:25:28;36.23;;;32.53;;
11042;SDS011;5574;48.786;10.120;2024-01-30T10:27:56;18.87;;;16.37;;
11042;SDS011;5574;48.786;10.120;2024-01-30T10:30:25;14.97;;;13.50;;
11042;SDS011;5574;48.786;10.120;2024-01-30T10:32:51;14.30;;;12.80;;
11042;SDS011;5574;48.786;10.120;2024-01-30T10:35:18;15.43;;;12.03;;
11042;SDS011;5574;48.786;10.120;2024-01-30T10:37:45;15.70;;;11.87;;
11042;SDS011;5574;48.786;10.120;2024-01-30T10:40:15;14.70;;;11.87;;
11042;SDS011;5574;48.786;10.120;2024-01-30T10:42:42;12.77;;;11.40;;
11042;SDS011;5574;48.786;10.120;2024-01-30T10:45:10;13.33;;;11.83;;
11042;SDS011;5574;48.786;10.120;2024-01-30T10:47:39;13.80;;;12.30;;
11042;SDS011;5574;48.786;10.120;2024-01-30T10:50:07;13.20;;;11.80;;
11042;SDS011;5574;48.786;10.120;2024-01-30T10:52:35;13.30;;;12.00;;
11042;SDS011;5574;48.786;10.120;2024-01-30T10:55:03;15.07;;;12.03;;
11042;SDS011;5574;48.786;10.120;2024-01-30T10:57:33;13.43;;;11.20;;
11042;SDS011;5574;48.786;10.120;2024-01-30T11:00:00;13.67;;;12.27;;
11042;SDS011;5574;48.786;10.120;2024-01-30T11:02:30;13.80;;;12.23;;
11042;SDS011;5574;48.786;10.120;2024-01-30T11:04:59;15.57;;;12.33;;
11042;SDS011;5574;48.786;10.120;2024-01-30T11:07:26;13.47;;;11.87;;
11042;SDS011;5574;48.786;10.120;2024-01-30T11:09:59;16.50;;;11.93;;
11042;SDS011;5574;48.786;10.120;2024-01-30T11:12:27;13.67;;;11.83;;
11042;SDS011;5574;48.786;10.120;2024-01-30T11:15:02;15.43;;;11.37;;
11042;SDS011;5574;48.786;10.120;2024-01-30T11:17:39;14.13;;;11.87;;
11042;SDS011;5574;48.786;10.120;2024-01-30T11:20:10;12.50;;;11.20;;
11042;SDS011;5574;48.786;10.120;2024-01-30T11:22:40;12.93;;;11.57;;
11042;SDS011;5574;48.786;10.120;2024-01-30T11:25:10;15.13;;;12.40;;
11042;SDS011;5574;48.786;10.120;2024-01-30T11:27:37;15.07;;;12.37;;
11042;SDS011;5574;48.786;10.120;2024-01-30T11:30:06;15.07;;;12.10;;
11042;SDS011;5574;48.786;10.120;2024-01-30T11:32:34;13.43;;;12.03;;
11042;SDS011;5574;48.786;10.120;2024-01-30T11:35:02;13.70;;;11.63;;
11042;SDS011;5574;48.786;10.120;2024-01-30T11:37:30;15.47;;;12.40;;
11042;SDS011;5574;48.786;10.120;2024-01-30T11:39:57;13.17;;;11.70;;
11042;SDS011;5574;48.786;10.120;2024-01-30T11:42:25;16.67;;;12.60;;
11042;SDS011;5574;48.786;10.120;2024-01-30T11:44:53;13.63;;;11.30;;
11042;SDS011;5574;48.786;10.120;2024-01-30T11:47:23;15.57;;;11.77;;
11042;SDS011;5574;48.786;10.120;2024-01-30T11:49:50;13.10;;;10.63;;
11042;SDS011;5574;48.786;10.120;2024-01-30T11:52:16;13.57;;;10.13;;
11042;SDS011;5574;48.786;10.120;2024-01-30T11:54:43;11.23;;;10.07;;
11042;SDS011;5574;48.786;10.120;2024-01-30T11:57:10;14.17;;;9.87;;
11042;SDS011;5574;48.786;10.120;2024-01-30T11:59:37;11.87;;;10.40;;
11042;SDS011;5574;48.786;10.120;2024-01-30T12:02:04;12.13;;;10.53;;
11042;SDS011;5574;48.786;10.120;2024-01-30T12:04:32;12.53;;;10.50;;
11042;SDS011;5574;48.786;10.120;2024-01-30T12:06:58;12.83;;;8.97;;
11042;SDS011;5574;48.786;10.120;2024-01-30T12:09:25;13.60;;;8.33;;
11042;SDS011;5574;48.786;10.120;2024-01-30T12:11:53;10.30;;;8.17;;
11042;SDS011;5574;48.786;10.120;2024-01-30T12:14:19;10.10;;;7.23;;
11042;SDS011;5574;48.786;10.120;2024-01-30T12:16:50;8.27;;;7.47;;
11042;SDS011;5574;48.786;10.120;2024-01-30T12:19:22;11.13;;;7.67;;
11042;SDS011;5574;48.786;10.120;2024-01-30T12:21:55;11.23;;;7.83;;
11042;SDS011;5574;48.786;10.120;2024-01-30T12:24:23;7.90;;;6.63;;
11042;SDS011;5574;48.786;10.120;2024-01-30T12:26:51;7.83;;;6.80;;
11042;SDS011;5574;48.786;10.120;2024-01-30T12:29:18;9.47;;;6.47;;
11042;SDS011;5574;48.786;10.120;2024-01-30T12:31:46;7.23;;;6.53;;
11042;SDS011;5574;48.786;10.120;2024-01-30T12:34:13;8.13;;;6.07;;
11042;SDS011;5574;48.786;10.120;2024-01-30T12:36:42;6.77;;;5.90;;
11042;SDS011;5574;48.786;10.120;2024-01-30T12:39:11;9.13;;;4.40;;
11042;SDS011;5574;48.786;10.120;2024-01-30T12:41:39;11.63;;;4.80;;
11042;SDS011;5574;48.786;10.120;2024-01-30T12:44:06;8.37;;;4.73;;
11042;SDS011;5574;48.786;10.120;2024-01-30T12:46:34;6.53;;;4.73;;
11042;SDS011;5574;48.786;10.120;2024-01-30T12:49:01;7.17;;;4.60;;
11042;SDS011;5574;48.786;10.120;2024-01-30T12:51:28;9.33;;;3.77;;
11042;SDS011;5574;48.786;10.120;2024-01-30T12:53:54;9.57;;;3.80;;
11042;SDS011;5574;48.786;10.120;2024-01-30T12:56:23;6.17;;;3.40;;
11042;SDS011;5574;48.786;10.120;2024-01-30T12:58:49;12.10;;;4.27;;
11042;SDS011;5574;48.786;10.120;2024-01-30T13:01:16;6.93;;;3.30;;
11042;SDS011;5574;48.786;10.120;2024-01-30T13:03:43;3.93;;;3.50;;
11042;SDS011;5574;48.786;10.120;2024-01-30T13:06:09;7.27;;;3.83;;
11042;SDS011;5574;48.786;10.120;2024-01-30T13:08:36;7.83;;;3.20;;
11042;SDS011;5574;48.786;10.120;2024-01-30T13:11:03;13.90;;;3.97;;
11042;SDS011;5574;48.786;10.120;2024-01-30T13:13:31;9.43;;;3.47;;
11042;SDS011;5574;48.786;10.120;2024-01-30T13:15:58;65.07;;;8.20;;
11042;SDS011;5574;48.786;10.120;2024-01-30T13:18:25;11.83;;;3.63;;
11042;SDS011;5574;48.786;10.120;2024-01-30T13:20:51;8.93;;;3.70;;
11042;SDS011;5574;48.786;10.120;2024-01-30T13:23:18;11.27;;;3.63;;
11042;SDS011;5574;48.786;10.120;2024-01-30T13:25:45;27.43;;;4.20;;
11042;SDS011;5574;48.786;10.120;2024-01-30T13:28:11;11.23;;;3.40;;
11042;SDS011;5574;48.786;10.120;2024-01-30T13:30:40;5.17;;;2.83;;
11042;SDS011;5574;48.786;10.120;2024-01-30T13:33:06;5.63;;;3.27;;
11042;SDS011;5574;48.786;10.120;2024-01-30T13:35:33;9.27;;;3.10;;
11042;SDS011;5574;48.786;10.120;2024-01-30T13:38:00;7.73;;;3.00;;
11042;SDS011;5574;48.786;10.120;2024-01-30T13:40:26;10.90;;;3.77;;
11042;SDS011;5574;48.786;10.120;2024-01-30T13:42:53;5.17;;;3.13;;
11042;SDS011;5574;48.786;10.120;2024-01-30T13:45:20;13.77;;;3.83;;
11042;SDS011;5574;48.786;10.120;2024-01-30T13:47:48;4.00;;;3.00;;
11042;SDS011;5574;48.786;10.120;2024-01-30T13:50:15;5.93;;;3.30;;
11042;SDS011;5574;48.786;10.120;2024-01-30T13:52:41;13.13;;;3.53;;
11042;SDS011;5574;48.786;10.120;2024-01-30T13:55:08;3.50;;;2.77;;
11042;SDS011;5574;48.786;10.120;2024-01-30T13:57:35;4.73;;;3.00;;
11042;SDS011;5574;48.786;10.120;2024-01-30T14:00:03;4.37;;;2.90;;
11042;SDS011;5574;48.786;10.120;2024-01-30T14:02:31;6.20;;;3.10;;
11042;SDS011;5574;48.786;10.120;2024-01-30T14:04:59;4.73;;;2.93;;
11042;SDS011;5574;48.786;10.120;2024-01-30T14:07:26;7.10;;;3.60;;
11042;SDS011;5574;48.786;10.120;2024-01-30T14:09:53;5.50;;;2.70;;
11042;SDS011;5574;48.786;10.120;2024-01-30T14:12:20;14.63;;;3.67;;
11042;SDS011;5574;48.786;10.120;2024-01-30T14:14:47;3.77;;;2.93;;
11042;SDS011;5574;48.786;10.120;2024-01-30T14:17:14;3.03;;;2.73;;
11042;SDS011;5574;48.786;10.120;2024-01-30T14:19:40;5.07;;;2.77;;
11042;SDS011;5574;48.786;10.120;2024-01-30T14:22:08;6.03;;;2.77;;
11042;SDS011;5574;48.786;10.120;2024-01-30T14:24:35;2.97;;;2.70;;
11042;SDS011;5574;48.786;10.120;2024-01-30T14:27:03;9.40;;;3.37;;